sensor_id;sensor_type;location;lat;lon;timestamp;P1;durP1;ratioP1;P2;durP2;ratioP2
55493;SDS011;41355;50.390;19.096;2022-12-11T00:00:07;33.78;;;12.32;;
55493;SDS011;41355;50.390;19.096;2022-12-11T00:02:34;38.15;;;11.32;;
55493;SDS011;41355;50.390;19.096;2022-12-11T00:05:00;41.30;;;12.63;;
55493;SDS011;41355;50.390;19.096;2022-12-11T00:07:26;30.40;;;8.48;;
55493;SDS011;41355;50.390;19.096;2022-12-11T00:09:52;22.70;;;8.95;;
55493;SDS011;41355;50.390;19.096;2022-12-11T00:12:18;31.40;;;8.63;;
55493;SDS011;41355;50.390;19.096;2022-12-11T00:14:44;35.50;;;11.00;;
55493;SDS011;41355;50.390;19.096;2022-12-11T00:17:10;31.48;;;10.15;;
55493;SDS011;41355;50.390;19.096;2022-12-11T00:19:36;27.35;;;8.20;;
55493;SDS011;41355;50.390;19.096;2022-12-11T00:22:02;25.52;;;9.10;;
55493;SDS011;41355;50.390;19.096;2022-12-11T00:24:28;26.13;;;10.32;;
55493;SDS011;41355;50.390;19.096;2022-12-11T00:26:54;24.45;;;7.65;;
55493;SDS011;41355;50.390;19.096;2022-12-11T00:29:20;34.53;;;11.65;;
55493;SDS011;41355;50.390;19.096;2022-12-11T00:31:46;30.08;;;9.50;;
55493;SDS011;41355;50.390;19.096;2022-12-11T00:34:12;38.35;;;11.32;;
55493;SDS011;41355;50.390;19.096;2022-12-11T00:36:38;37.05;;;11.10;;
55493;SDS011;41355;50.390;19.096;2022-12-11T00:39:05;30.63;;;10.27;;
55493;SDS011;41355;50.390;19.096;2022-12-11T00:41:31;31.75;;;10.95;;
55493;SDS011;41355;50.390;19.096;2022-12-11T00:43:57;42.33;;;12.68;;
55493;SDS011;41355;50.390;19.096;2022-12-11T00:46:23;40.55;;;12.00;;
55493;SDS011;41355;50.390;19.096;2022-12-11T00:48:49;34.17;;;12.98;;
55493;SDS011;41355;50.390;19.096;2022-12-11T00:51:15;31.70;;;10.98;;
55493;SDS011;41355;50.390;19.096;2022-12-11T00:53:42;36.58;;;13.30;;
55493;SDS011;41355;50.390;19.096;2022-12-11T00:56:09;35.97;;;10.65;;
55493;SDS011;41355;50.390;19.096;2022-12-11T00:58:35;30.13;;;9.80;;
55493;SDS011;41355;50.390;19.096;2022-12-11T01:01:05;33.58;;;10.93;;
55493;SDS011;41355;50.390;19.096;2022-12-11T01:03:31;24.15;;;7.50;;
55493;SDS011;41355;50.390;19.096;2022-12-11T01:05:57;31.98;;;11.90;;
55493;SDS011;41355;50.390;19.096;2022-12-11T01:08:23;31.80;;;11.15;;
55493;SDS011;41355;50.390;19.096;2022-12-11T01:10:49;43.40;;;11.98;;
55493;SDS011;41355;50.390;19.096;2022-12-11T01:13:15;38.72;;;11.35;;
55493;SDS011;41355;50.390;19.096;2022-12-11T01:15:44;39.17;;;10.07;;
55493;SDS011;41355;50.390;19.096;2022-12-11T01:18:11;31.27;;;9.98;;
55493;SDS011;41355;50.390;19.096;2022-12-11T01:20:38;45.67;;;14.02;;
55493;SDS011;41355;50.390;19.096;2022-12-11T01:23:05;41.33;;;12.55;;
55493;SDS011;41355;50.390;19.096;2022-12-11T01:25:31;31.50;;;10.57;;
55493;SDS011;41355;50.390;19.096;2022-12-11T01:27:57;39.20;;;11.68;;
55493;SDS011;41355;50.390;19.096;2022-12-11T01:30:24;27.38;;;8.75;;
55493;SDS011;41355;50.390;19.096;2022-12-11T01:32:50;35.47;;;10.80;;
55493;SDS011;41355;50.390;19.096;2022-12-11T01:35:16;40.03;;;11.32;;
55493;SDS011;41355;50.390;19.096;2022-12-11T01:37:43;39.55;;;11.73;;
55493;SDS011;41355;50.390;19.096;2022-12-11T01:40:11;45.13;;;14.73;;
55493;SDS011;41355;50.390;19.096;2022-12-11T01:42:38;48.63;;;15.93;;
55493;SDS011;41355;50.390;19.096;2022-12-11T01:47:48;48.38;;;12.82;;
55493;SDS011;41355;50.390;19.096;2022-12-11T01:50:15;32.55;;;10.23;;
55493;SDS011;41355;50.390;19.096;2022-12-11T01:52:42;41.30;;;12.90;;
55493;SDS011;41355;50.390;19.096;2022-12-11T01:55:09;55.22;;;15.35;;
55493;SDS011;41355;50.390;19.096;2022-12-11T01:57:36;58.60;;;16.33;;
55493;SDS011;41355;50.390;19.096;2022-12-11T02:00:03;31.17;;;8.98;;
55493;SDS011;41355;50.390;19.096;2022-12-11T02:02:29;59.78;;;16.08;;
55493;SDS011;41355;50.390;19.096;2022-12-11T02:04:56;48.42;;;11.63;;
55493;SDS011;41355;50.390;19.096;2022-12-11T02:07:22;47.38;;;13.45;;
55493;SDS011;41355;50.390;19.096;2022-12-11T02:09:48;47.42;;;11.30;;
55493;SDS011;41355;50.390;19.096;2022-12-11T02:17:17;44.13;;;13.73;;
55493;SDS011;41355;50.390;19.096;2022-12-11T02:22:12;57.25;;;18.48;;
55493;SDS011;41355;50.390;19.096;2022-12-11T02:29:35;57.45;;;14.20;;
55493;SDS011;41355;50.390;19.096;2022-12-11T02:32:16;58.47;;;15.32;;
55493;SDS011;41355;50.390;19.096;2022-12-11T02:34:45;32.60;;;10.18;;
55493;SDS011;41355;50.390;19.096;2022-12-11T02:37:16;40.58;;;9.23;;
55493;SDS011;41355;50.390;19.096;2022-12-11T02:39:43;49.53;;;12.50;;
55493;SDS011;41355;50.390;19.096;2022-12-11T02:42:10;44.17;;;14.15;;
55493;SDS011;41355;50.390;19.096;2022-12-11T02:44:37;40.38;;;11.82;;
55493;SDS011;41355;50.390;19.096;2022-12-11T02:47:06;53.17;;;14.25;;
55493;SDS011;41355;50.390;19.096;2022-12-11T02:49:33;42.75;;;12.93;;
55493;SDS011;41355;50.390;19.096;2022-12-11T02:51:59;50.65;;;13.82;;
55493;SDS011;41355;50.390;19.096;2022-12-11T02:54:27;60.00;;;16.98;;
55493;SDS011;41355;50.390;19.096;2022-12-11T02:59:22;52.17;;;15.10;;
55493;SDS011;41355;50.390;19.096;2022-12-11T03:01:50;55.72;;;16.35;;
55493;SDS011;41355;50.390;19.096;2022-12-11T03:04:16;44.05;;;14.00;;
55493;SDS011;41355;50.390;19.096;2022-12-11T03:06:44;61.55;;;17.02;;
55493;SDS011;41355;50.390;19.096;2022-12-11T03:09:12;55.53;;;14.30;;
55493;SDS011;41355;50.390;19.096;2022-12-11T03:11:38;43.42;;;13.40;;
55493;SDS011;41355;50.390;19.096;2022-12-11T03:14:04;35.92;;;11.88;;
55493;SDS011;41355;50.390;19.096;2022-12-11T03:26:46;46.78;;;16.35;;
55493;SDS011;41355;50.390;19.096;2022-12-11T03:29:16;66.25;;;16.48;;
55493;SDS011;41355;50.390;19.096;2022-12-11T03:31:46;43.13;;;13.20;;
55493;SDS011;41355;50.390;19.096;2022-12-11T03:34:17;50.78;;;16.70;;
55493;SDS011;41355;50.390;19.096;2022-12-11T03:36:44;60.58;;;16.63;;
55493;SDS011;41355;50.390;19.096;2022-12-11T03:39:14;42.85;;;14.18;;
55493;SDS011;41355;50.390;19.096;2022-12-11T03:41:41;27.55;;;8.70;;
55493;SDS011;41355;50.390;19.096;2022-12-11T03:44:08;57.95;;;17.67;;
55493;SDS011;41355;50.390;19.096;2022-12-11T03:46:36;49.35;;;17.33;;
55493;SDS011;41355;50.390;19.096;2022-12-11T03:49:08;69.03;;;22.08;;
55493;SDS011;41355;50.390;19.096;2022-12-11T03:51:35;66.43;;;25.67;;
55493;SDS011;41355;50.390;19.096;2022-12-11T03:54:02;56.85;;;17.98;;
55493;SDS011;41355;50.390;19.096;2022-12-11T03:56:28;61.55;;;18.90;;
55493;SDS011;41355;50.390;19.096;2022-12-11T03:58:56;43.28;;;13.40;;
55493;SDS011;41355;50.390;19.096;2022-12-11T04:01:22;64.80;;;21.33;;
55493;SDS011;41355;50.390;19.096;2022-12-11T04:03:48;46.22;;;13.70;;
55493;SDS011;41355;50.390;19.096;2022-12-11T04:06:14;43.47;;;14.05;;
55493;SDS011;41355;50.390;19.096;2022-12-11T04:08:40;71.68;;;22.45;;
55493;SDS011;41355;50.390;19.096;2022-12-11T04:11:06;52.42;;;19.48;;
55493;SDS011;41355;50.390;19.096;2022-12-11T04:13:55;51.58;;;18.75;;
55493;SDS011;41355;50.390;19.096;2022-12-11T04:19:05;57.80;;;18.08;;
55493;SDS011;41355;50.390;19.096;2022-12-11T04:21:50;47.95;;;16.13;;
55493;SDS011;41355;50.390;19.096;2022-12-11T04:24:34;36.22;;;9.45;;
55493;SDS011;41355;50.390;19.096;2022-12-11T04:27:00;47.70;;;16.33;;
55493;SDS011;41355;50.390;19.096;2022-12-11T04:29:26;31.73;;;12.15;;
55493;SDS011;41355;50.390;19.096;2022-12-11T04:31:53;38.85;;;14.85;;
55493;SDS011;41355;50.390;19.096;2022-12-11T04:34:19;37.72;;;14.20;;
55493;SDS011;41355;50.390;19.096;2022-12-11T04:36:45;34.42;;;12.77;;
55493;SDS011;41355;50.390;19.096;2022-12-11T04:39:11;40.83;;;14.77;;
55493;SDS011;41355;50.390;19.096;2022-12-11T04:41:37;53.33;;;19.02;;
55493;SDS011;41355;50.390;19.096;2022-12-11T04:44:03;49.10;;;17.88;;
55493;SDS011;41355;50.390;19.096;2022-12-11T04:46:29;46.30;;;19.73;;
55493;SDS011;41355;50.390;19.096;2022-12-11T04:48:57;54.40;;;18.77;;
55493;SDS011;41355;50.390;19.096;2022-12-11T04:51:24;57.28;;;17.50;;
55493;SDS011;41355;50.390;19.096;2022-12-11T04:53:51;48.92;;;16.98;;
55493;SDS011;41355;50.390;19.096;2022-12-11T04:56:17;36.00;;;12.82;;
55493;SDS011;41355;50.390;19.096;2022-12-11T04:58:43;37.70;;;13.15;;
55493;SDS011;41355;50.390;19.096;2022-12-11T05:01:10;51.17;;;20.13;;
55493;SDS011;41355;50.390;19.096;2022-12-11T05:03:37;28.73;;;10.60;;
55493;SDS011;41355;50.390;19.096;2022-12-11T05:06:03;34.28;;;14.13;;
55493;SDS011;41355;50.390;19.096;2022-12-11T05:08:29;27.27;;;11.13;;
55493;SDS011;41355;50.390;19.096;2022-12-11T05:10:55;28.85;;;9.45;;
55493;SDS011;41355;50.390;19.096;2022-12-11T05:13:22;43.78;;;15.50;;
55493;SDS011;41355;50.390;19.096;2022-12-11T05:15:48;38.28;;;14.98;;
55493;SDS011;41355;50.390;19.096;2022-12-11T05:18:14;36.78;;;11.80;;
55493;SDS011;41355;50.390;19.096;2022-12-11T05:20:40;37.38;;;14.30;;
55493;SDS011;41355;50.390;19.096;2022-12-11T05:23:06;36.05;;;14.93;;
55493;SDS011;41355;50.390;19.096;2022-12-11T05:25:32;36.38;;;14.60;;
55493;SDS011;41355;50.390;19.096;2022-12-11T05:27:58;32.63;;;11.43;;
55493;SDS011;41355;50.390;19.096;2022-12-11T05:30:24;35.47;;;11.55;;
55493;SDS011;41355;50.390;19.096;2022-12-11T05:32:50;27.83;;;9.48;;
55493;SDS011;41355;50.390;19.096;2022-12-11T05:35:16;36.22;;;13.95;;
55493;SDS011;41355;50.390;19.096;2022-12-11T05:37:42;24.67;;;10.48;;
55493;SDS011;41355;50.390;19.096;2022-12-11T05:40:09;21.35;;;8.80;;
55493;SDS011;41355;50.390;19.096;2022-12-11T05:42:38;21.23;;;8.98;;
55493;SDS011;41355;50.390;19.096;2022-12-11T05:45:05;30.15;;;12.70;;
55493;SDS011;41355;50.390;19.096;2022-12-11T05:47:31;21.25;;;8.75;;
55493;SDS011;41355;50.390;19.096;2022-12-11T05:49:57;33.63;;;13.55;;
55493;SDS011;41355;50.390;19.096;2022-12-11T05:52:23;27.35;;;10.48;;
55493;SDS011;41355;50.390;19.096;2022-12-11T05:54:49;26.73;;;8.82;;
55493;SDS011;41355;50.390;19.096;2022-12-11T05:57:15;24.42;;;9.77;;
55493;SDS011;41355;50.390;19.096;2022-12-11T05:59:41;35.35;;;11.95;;
55493;SDS011;41355;50.390;19.096;2022-12-11T06:02:07;18.13;;;7.55;;
55493;SDS011;41355;50.390;19.096;2022-12-11T06:04:34;28.60;;;12.98;;
55493;SDS011;41355;50.390;19.096;2022-12-11T06:07:00;21.20;;;7.40;;
55493;SDS011;41355;50.390;19.096;2022-12-11T06:09:26;32.72;;;14.25;;
55493;SDS011;41355;50.390;19.096;2022-12-11T06:11:52;30.63;;;13.43;;
55493;SDS011;41355;50.390;19.096;2022-12-11T06:14:17;19.98;;;7.88;;
55493;SDS011;41355;50.390;19.096;2022-12-11T06:16:44;21.80;;;9.02;;
55493;SDS011;41355;50.390;19.096;2022-12-11T06:19:15;37.08;;;15.90;;
55493;SDS011;41355;50.390;19.096;2022-12-11T06:21:44;27.33;;;11.45;;
55493;SDS011;41355;50.390;19.096;2022-12-11T06:24:12;34.40;;;17.27;;
55493;SDS011;41355;50.390;19.096;2022-12-11T06:26:39;26.77;;;10.48;;
55493;SDS011;41355;50.390;19.096;2022-12-11T06:29:05;19.30;;;7.97;;
55493;SDS011;41355;50.390;19.096;2022-12-11T06:31:31;26.92;;;9.77;;
55493;SDS011;41355;50.390;19.096;2022-12-11T06:33:57;31.50;;;13.80;;
55493;SDS011;41355;50.390;19.096;2022-12-11T06:36:23;29.42;;;11.98;;
55493;SDS011;41355;50.390;19.096;2022-12-11T06:38:49;30.63;;;11.73;;
55493;SDS011;41355;50.390;19.096;2022-12-11T06:41:15;25.13;;;9.07;;
55493;SDS011;41355;50.390;19.096;2022-12-11T06:43:42;40.05;;;15.48;;
55493;SDS011;41355;50.390;19.096;2022-12-11T06:46:09;31.48;;;13.00;;
55493;SDS011;41355;50.390;19.096;2022-12-11T06:48:35;34.58;;;15.90;;
55493;SDS011;41355;50.390;19.096;2022-12-11T06:51:20;35.65;;;12.40;;
55493;SDS011;41355;50.390;19.096;2022-12-11T06:53:54;38.67;;;15.57;;
55493;SDS011;41355;50.390;19.096;2022-12-11T06:56:20;35.03;;;15.07;;
55493;SDS011;41355;50.390;19.096;2022-12-11T06:58:47;39.05;;;15.40;;
55493;SDS011;41355;50.390;19.096;2022-12-11T07:01:16;27.77;;;10.60;;
55493;SDS011;41355;50.390;19.096;2022-12-11T07:03:43;23.60;;;9.10;;
55493;SDS011;41355;50.390;19.096;2022-12-11T07:06:09;25.17;;;9.50;;
55493;SDS011;41355;50.390;19.096;2022-12-11T07:08:35;25.55;;;10.50;;
55493;SDS011;41355;50.390;19.096;2022-12-11T07:11:05;29.20;;;10.38;;
55493;SDS011;41355;50.390;19.096;2022-12-11T07:13:31;26.20;;;10.07;;
55493;SDS011;41355;50.390;19.096;2022-12-11T07:15:58;18.52;;;7.18;;
55493;SDS011;41355;50.390;19.096;2022-12-11T07:18:25;33.92;;;16.00;;
55493;SDS011;41355;50.390;19.096;2022-12-11T07:20:52;33.85;;;13.98;;
55493;SDS011;41355;50.390;19.096;2022-12-11T07:23:18;19.35;;;8.43;;
55493;SDS011;41355;50.390;19.096;2022-12-11T07:25:44;25.45;;;11.27;;
55493;SDS011;41355;50.390;19.096;2022-12-11T07:28:10;29.02;;;12.52;;
55493;SDS011;41355;50.390;19.096;2022-12-11T07:30:39;21.10;;;7.95;;
55493;SDS011;41355;50.390;19.096;2022-12-11T07:33:05;25.77;;;11.63;;
55493;SDS011;41355;50.390;19.096;2022-12-11T07:35:33;22.20;;;8.38;;
55493;SDS011;41355;50.390;19.096;2022-12-11T07:37:59;30.20;;;12.65;;
55493;SDS011;41355;50.390;19.096;2022-12-11T07:40:25;11.55;;;5.53;;
55493;SDS011;41355;50.390;19.096;2022-12-11T07:42:51;27.52;;;8.40;;
55493;SDS011;41355;50.390;19.096;2022-12-11T07:45:17;36.38;;;11.70;;
55493;SDS011;41355;50.390;19.096;2022-12-11T07:47:43;22.13;;;9.82;;
55493;SDS011;41355;50.390;19.096;2022-12-11T07:50:09;17.83;;;6.60;;
55493;SDS011;41355;50.390;19.096;2022-12-11T07:52:35;24.58;;;11.02;;
55493;SDS011;41355;50.390;19.096;2022-12-11T07:55:02;21.05;;;6.70;;
55493;SDS011;41355;50.390;19.096;2022-12-11T07:57:28;12.93;;;4.78;;
55493;SDS011;41355;50.390;19.096;2022-12-11T07:59:54;27.27;;;12.25;;
55493;SDS011;41355;50.390;19.096;2022-12-11T08:02:20;20.95;;;8.07;;
55493;SDS011;41355;50.390;19.096;2022-12-11T08:04:46;19.15;;;7.38;;
55493;SDS011;41355;50.390;19.096;2022-12-11T08:07:13;21.63;;;9.07;;
55493;SDS011;41355;50.390;19.096;2022-12-11T08:09:40;22.48;;;9.82;;
55493;SDS011;41355;50.390;19.096;2022-12-11T08:12:06;19.73;;;7.82;;
55493;SDS011;41355;50.390;19.096;2022-12-11T08:14:32;18.50;;;6.65;;
55493;SDS011;41355;50.390;19.096;2022-12-11T08:16:58;27.33;;;9.90;;
55493;SDS011;41355;50.390;19.096;2022-12-11T08:19:26;30.42;;;10.38;;
55493;SDS011;41355;50.390;19.096;2022-12-11T08:21:52;18.50;;;7.68;;
55493;SDS011;41355;50.390;19.096;2022-12-11T08:24:18;19.70;;;6.65;;
55493;SDS011;41355;50.390;19.096;2022-12-11T08:26:45;17.80;;;5.85;;
55493;SDS011;41355;50.390;19.096;2022-12-11T08:29:11;22.90;;;7.63;;
55493;SDS011;41355;50.390;19.096;2022-12-11T08:31:38;27.23;;;11.25;;
55493;SDS011;41355;50.390;19.096;2022-12-11T08:34:04;30.00;;;13.07;;
55493;SDS011;41355;50.390;19.096;2022-12-11T08:36:30;28.20;;;10.27;;
55493;SDS011;41355;50.390;19.096;2022-12-11T08:38:56;28.95;;;11.98;;
55493;SDS011;41355;50.390;19.096;2022-12-11T08:41:24;28.42;;;13.13;;
55493;SDS011;41355;50.390;19.096;2022-12-11T08:43:50;27.40;;;12.32;;
55493;SDS011;41355;50.390;19.096;2022-12-11T08:46:19;21.45;;;7.82;;
55493;SDS011;41355;50.390;19.096;2022-12-11T08:48:46;27.90;;;11.70;;
55493;SDS011;41355;50.390;19.096;2022-12-11T08:51:13;21.70;;;10.23;;
55493;SDS011;41355;50.390;19.096;2022-12-11T08:53:40;28.73;;;13.10;;
55493;SDS011;41355;50.390;19.096;2022-12-11T08:56:07;27.60;;;12.93;;
55493;SDS011;41355;50.390;19.096;2022-12-11T08:58:34;23.15;;;9.30;;
55493;SDS011;41355;50.390;19.096;2022-12-11T09:01:04;16.30;;;7.03;;
55493;SDS011;41355;50.390;19.096;2022-12-11T09:03:30;25.00;;;11.93;;
55493;SDS011;41355;50.390;19.096;2022-12-11T09:05:57;18.17;;;7.05;;
55493;SDS011;41355;50.390;19.096;2022-12-11T09:08:23;30.55;;;10.75;;
55493;SDS011;41355;50.390;19.096;2022-12-11T09:10:49;19.95;;;7.30;;
55493;SDS011;41355;50.390;19.096;2022-12-11T09:13:15;21.27;;;11.05;;
55493;SDS011;41355;50.390;19.096;2022-12-11T09:15:41;19.75;;;7.78;;
55493;SDS011;41355;50.390;19.096;2022-12-11T09:18:07;17.58;;;8.32;;
55493;SDS011;41355;50.390;19.096;2022-12-11T09:20:33;21.02;;;9.02;;
55493;SDS011;41355;50.390;19.096;2022-12-11T09:23:00;29.98;;;10.00;;
55493;SDS011;41355;50.390;19.096;2022-12-11T09:25:26;26.38;;;9.52;;
55493;SDS011;41355;50.390;19.096;2022-12-11T09:27:52;20.90;;;9.40;;
55493;SDS011;41355;50.390;19.096;2022-12-11T09:30:18;29.77;;;13.32;;
55493;SDS011;41355;50.390;19.096;2022-12-11T09:32:44;24.25;;;10.65;;
55493;SDS011;41355;50.390;19.096;2022-12-11T09:35:10;21.42;;;8.55;;
55493;SDS011;41355;50.390;19.096;2022-12-11T09:37:36;20.38;;;9.45;;
55493;SDS011;41355;50.390;19.096;2022-12-11T09:40:02;21.20;;;8.40;;
55493;SDS011;41355;50.390;19.096;2022-12-11T09:42:49;19.52;;;7.97;;
55493;SDS011;41355;50.390;19.096;2022-12-11T09:45:17;28.50;;;12.88;;
55493;SDS011;41355;50.390;19.096;2022-12-11T09:47:47;17.50;;;5.53;;
55493;SDS011;41355;50.390;19.096;2022-12-11T09:50:19;24.38;;;8.75;;
55493;SDS011;41355;50.390;19.096;2022-12-11T09:52:51;25.00;;;10.63;;
55493;SDS011;41355;50.390;19.096;2022-12-11T09:55:20;17.42;;;7.75;;
55493;SDS011;41355;50.390;19.096;2022-12-11T10:03:05;12.50;;;5.90;;
55493;SDS011;41355;50.390;19.096;2022-12-11T10:05:39;21.08;;;9.05;;
55493;SDS011;41355;50.390;19.096;2022-12-11T10:08:15;19.40;;;8.50;;
55493;SDS011;41355;50.390;19.096;2022-12-11T10:10:43;13.77;;;6.38;;
55493;SDS011;41355;50.390;19.096;2022-12-11T10:13:16;14.88;;;6.55;;
55493;SDS011;41355;50.390;19.096;2022-12-11T10:15:58;24.42;;;11.68;;
55493;SDS011;41355;50.390;19.096;2022-12-11T10:18:26;21.02;;;7.60;;
55493;SDS011;41355;50.390;19.096;2022-12-11T10:20:53;17.08;;;6.05;;
55493;SDS011;41355;50.390;19.096;2022-12-11T10:23:24;22.33;;;9.68;;
55493;SDS011;41355;50.390;19.096;2022-12-11T10:26:02;17.67;;;8.43;;
55493;SDS011;41355;50.390;19.096;2022-12-11T10:28:31;15.75;;;7.28;;
55493;SDS011;41355;50.390;19.096;2022-12-11T10:31:01;22.08;;;8.90;;
55493;SDS011;41355;50.390;19.096;2022-12-11T10:36:36;18.25;;;7.20;;
55493;SDS011;41355;50.390;19.096;2022-12-11T10:39:09;18.80;;;6.60;;
55493;SDS011;41355;50.390;19.096;2022-12-11T10:41:37;29.92;;;12.50;;
55493;SDS011;41355;50.390;19.096;2022-12-11T10:44:14;26.73;;;9.35;;
55493;SDS011;41355;50.390;19.096;2022-12-11T10:46:41;25.90;;;10.85;;
55493;SDS011;41355;50.390;19.096;2022-12-11T10:49:17;24.00;;;8.88;;
55493;SDS011;41355;50.390;19.096;2022-12-11T10:51:44;18.10;;;6.10;;
55493;SDS011;41355;50.390;19.096;2022-12-11T10:54:25;24.20;;;7.75;;
55493;SDS011;41355;50.390;19.096;2022-12-11T10:56:54;21.15;;;7.90;;
55493;SDS011;41355;50.390;19.096;2022-12-11T10:59:28;30.40;;;9.02;;
55493;SDS011;41355;50.390;19.096;2022-12-11T11:01:56;22.17;;;7.60;;
55493;SDS011;41355;50.390;19.096;2022-12-11T11:04:25;32.95;;;13.82;;
55493;SDS011;41355;50.390;19.096;2022-12-11T11:09:36;31.50;;;14.18;;
55493;SDS011;41355;50.390;19.096;2022-12-11T11:12:04;34.35;;;12.35;;
55493;SDS011;41355;50.390;19.096;2022-12-11T11:14:41;29.77;;;12.65;;
55493;SDS011;41355;50.390;19.096;2022-12-11T11:17:13;30.30;;;9.52;;
55493;SDS011;41355;50.390;19.096;2022-12-11T11:19:39;21.67;;;9.23;;
55493;SDS011;41355;50.390;19.096;2022-12-11T11:22:06;27.95;;;13.45;;
55493;SDS011;41355;50.390;19.096;2022-12-11T11:27:01;19.17;;;6.57;;
55493;SDS011;41355;50.390;19.096;2022-12-11T11:29:28;25.35;;;10.15;;
55493;SDS011;41355;50.390;19.096;2022-12-11T11:31:56;26.23;;;10.52;;
55493;SDS011;41355;50.390;19.096;2022-12-11T11:34:22;23.02;;;8.55;;
55493;SDS011;41355;50.390;19.096;2022-12-11T11:36:57;24.17;;;10.52;;
55493;SDS011;41355;50.390;19.096;2022-12-11T11:41:52;32.67;;;12.27;;
55493;SDS011;41355;50.390;19.096;2022-12-11T11:44:23;22.88;;;8.95;;
55493;SDS011;41355;50.390;19.096;2022-12-11T11:47:01;26.85;;;12.13;;
55493;SDS011;41355;50.390;19.096;2022-12-11T11:51:56;20.10;;;9.15;;
55493;SDS011;41355;50.390;19.096;2022-12-11T11:54:35;24.42;;;9.68;;
55493;SDS011;41355;50.390;19.096;2022-12-11T11:57:04;19.77;;;8.30;;
55493;SDS011;41355;50.390;19.096;2022-12-11T11:59:40;28.23;;;12.75;;
55493;SDS011;41355;50.390;19.096;2022-12-11T12:02:15;25.90;;;8.73;;
55493;SDS011;41355;50.390;19.096;2022-12-11T12:04:43;27.33;;;9.50;;
55493;SDS011;41355;50.390;19.096;2022-12-11T12:15:01;21.85;;;9.80;;
55493;SDS011;41355;50.390;19.096;2022-12-11T12:30:17;16.02;;;6.20;;
55493;SDS011;41355;50.390;19.096;2022-12-11T12:38:09;20.77;;;9.05;;
55493;SDS011;41355;50.390;19.096;2022-12-11T12:43:12;27.92;;;11.48;;
55493;SDS011;41355;50.390;19.096;2022-12-11T12:48:20;20.05;;;7.80;;
55493;SDS011;41355;50.390;19.096;2022-12-11T12:50:47;23.30;;;9.63;;
55493;SDS011;41355;50.390;19.096;2022-12-11T12:53:19;24.30;;;9.30;;
55493;SDS011;41355;50.390;19.096;2022-12-11T12:55:46;19.65;;;6.95;;
55493;SDS011;41355;50.390;19.096;2022-12-11T13:00:51;26.50;;;9.52;;
55493;SDS011;41355;50.390;19.096;2022-12-11T13:05:55;30.15;;;12.30;;
55493;SDS011;41355;50.390;19.096;2022-12-11T13:11:10;15.60;;;7.43;;
55493;SDS011;41355;50.390;19.096;2022-12-11T13:13:38;38.60;;;12.38;;
55493;SDS011;41355;50.390;19.096;2022-12-11T13:16:22;22.67;;;10.25;;
55493;SDS011;41355;50.390;19.096;2022-12-11T13:18:49;27.67;;;10.10;;
55493;SDS011;41355;50.390;19.096;2022-12-11T13:21:26;29.60;;;10.35;;
55493;SDS011;41355;50.390;19.096;2022-12-11T13:23:52;31.75;;;12.43;;
55493;SDS011;41355;50.390;19.096;2022-12-11T13:26:28;29.02;;;10.70;;
55493;SDS011;41355;50.390;19.096;2022-12-11T13:28:55;33.38;;;12.13;;
55493;SDS011;41355;50.390;19.096;2022-12-11T13:31:35;34.28;;;12.90;;
55493;SDS011;41355;50.390;19.096;2022-12-11T13:36:40;30.60;;;12.02;;
55493;SDS011;41355;50.390;19.096;2022-12-11T13:39:17;20.92;;;8.77;;
55493;SDS011;41355;50.390;19.096;2022-12-11T13:44:38;35.17;;;13.02;;
55493;SDS011;41355;50.390;19.096;2022-12-11T13:47:09;30.00;;;11.40;;
55493;SDS011;41355;50.390;19.096;2022-12-11T13:49:37;39.65;;;15.77;;
55493;SDS011;41355;50.390;19.096;2022-12-11T13:52:04;29.70;;;11.23;;
55493;SDS011;41355;50.390;19.096;2022-12-11T13:54:32;30.20;;;11.77;;
55493;SDS011;41355;50.390;19.096;2022-12-11T13:59:34;36.08;;;15.32;;
55493;SDS011;41355;50.390;19.096;2022-12-11T14:02:06;29.75;;;9.55;;
55493;SDS011;41355;50.390;19.096;2022-12-11T14:04:38;32.95;;;11.52;;
55493;SDS011;41355;50.390;19.096;2022-12-11T14:07:07;30.00;;;11.48;;
55493;SDS011;41355;50.390;19.096;2022-12-11T14:09:33;35.72;;;16.70;;
55493;SDS011;41355;50.390;19.096;2022-12-11T14:12:01;27.48;;;12.55;;
55493;SDS011;41355;50.390;19.096;2022-12-11T14:14:32;24.45;;;10.40;;
55493;SDS011;41355;50.390;19.096;2022-12-11T14:16:59;32.85;;;13.63;;
55493;SDS011;41355;50.390;19.096;2022-12-11T14:19:26;23.45;;;9.27;;
55493;SDS011;41355;50.390;19.096;2022-12-11T14:21:56;25.00;;;10.13;;
55493;SDS011;41355;50.390;19.096;2022-12-11T14:24:22;48.72;;;20.38;;
55493;SDS011;41355;50.390;19.096;2022-12-11T14:26:49;33.08;;;13.20;;
55493;SDS011;41355;50.390;19.096;2022-12-11T14:29:25;28.15;;;11.93;;
55493;SDS011;41355;50.390;19.096;2022-12-11T14:31:53;37.00;;;13.10;;
55493;SDS011;41355;50.390;19.096;2022-12-11T14:34:21;43.60;;;15.73;;
55493;SDS011;41355;50.390;19.096;2022-12-11T14:36:49;28.90;;;11.80;;
55493;SDS011;41355;50.390;19.096;2022-12-11T14:41:48;33.08;;;11.20;;
55493;SDS011;41355;50.390;19.096;2022-12-11T14:44:15;29.02;;;10.93;;
55493;SDS011;41355;50.390;19.096;2022-12-11T14:46:46;38.05;;;13.02;;
55493;SDS011;41355;50.390;19.096;2022-12-11T14:49:19;15.68;;;6.50;;
55493;SDS011;41355;50.390;19.096;2022-12-11T14:51:46;25.10;;;10.68;;
55493;SDS011;41355;50.390;19.096;2022-12-11T14:54:24;19.63;;;7.63;;
55493;SDS011;41355;50.390;19.096;2022-12-11T14:56:50;38.83;;;14.88;;
55493;SDS011;41355;50.390;19.096;2022-12-11T14:59:17;44.83;;;15.52;;
55493;SDS011;41355;50.390;19.096;2022-12-11T15:01:46;25.95;;;11.15;;
55493;SDS011;41355;50.390;19.096;2022-12-11T15:04:22;45.15;;;14.20;;
55493;SDS011;41355;50.390;19.096;2022-12-11T15:06:49;24.13;;;8.40;;
55493;SDS011;41355;50.390;19.096;2022-12-11T15:11:41;25.88;;;9.65;;
55493;SDS011;41355;50.390;19.096;2022-12-11T15:14:08;48.22;;;18.75;;
55493;SDS011;41355;50.390;19.096;2022-12-11T15:16:36;45.97;;;18.55;;
55493;SDS011;41355;50.390;19.096;2022-12-11T15:19:02;25.55;;;11.13;;
55493;SDS011;41355;50.390;19.096;2022-12-11T15:21:32;44.45;;;15.55;;
55493;SDS011;41355;50.390;19.096;2022-12-11T15:24:03;23.88;;;9.90;;
55493;SDS011;41355;50.390;19.096;2022-12-11T15:26:55;29.33;;;10.05;;
55493;SDS011;41355;50.390;19.096;2022-12-11T15:31:57;27.77;;;10.57;;
55493;SDS011;41355;50.390;19.096;2022-12-11T15:34:24;23.80;;;9.10;;
55493;SDS011;41355;50.390;19.096;2022-12-11T15:36:53;26.38;;;11.65;;
55493;SDS011;41355;50.390;19.096;2022-12-11T15:39:19;39.95;;;16.58;;
55493;SDS011;41355;50.390;19.096;2022-12-11T15:41:45;30.23;;;12.75;;
55493;SDS011;41355;50.390;19.096;2022-12-11T15:44:15;26.38;;;9.60;;
55493;SDS011;41355;50.390;19.096;2022-12-11T15:46:42;31.35;;;13.68;;
55493;SDS011;41355;50.390;19.096;2022-12-11T15:49:11;22.45;;;9.75;;
55493;SDS011;41355;50.390;19.096;2022-12-11T15:51:38;27.60;;;13.85;;
55493;SDS011;41355;50.390;19.096;2022-12-11T15:54:04;26.20;;;9.60;;
55493;SDS011;41355;50.390;19.096;2022-12-11T15:56:30;28.67;;;10.05;;
55493;SDS011;41355;50.390;19.096;2022-12-11T15:58:57;35.70;;;14.48;;
55493;SDS011;41355;50.390;19.096;2022-12-11T16:01:27;25.55;;;9.65;;